Time;durP1;ratioP1;P1;durP2;ratioP2;P2;SDS_P1;SDS_P2;PMS_P1;PMS_P2;Temp;Humidity;BMP_temperature;BMP_pressure;BME280_temperature;BME280_humidity;BME280_pressure;Samples;Min_cycle;Max_cycle;Signal;HPM_P1;HPM_P2
2022/07/24 00:01:03;;;;;;;2.30;1.20;;;;;;;16.14;100.00;101960.66;4981139;28;20185;-66
2022/07/24 00:03:28;;;;;;;2.33;1.20;;;;;;;16.25;100.00;102014.16;4974718;28;20209;-66
2022/07/24 00:05:53;;;;;;;2.50;1.40;;;;;;;16.21;100.00;102021.06;4978465;28;20217;-66
2022/07/24 00:08:19;;;;;;;1.70;1.30;;;;;;;16.43;100.00;102011.69;4977503;28;20249;-65
2022/07/24 00:10:44;;;;;;;1.37;1.23;;;;;;;16.32;100.00;102011.50;4975585;28;20190;-66
2022/07/24 00:13:10;;;;;;;1.37;1.17;;;;;;;15.66;100.00;101937.28;4980218;28;20297;-65
2022/07/24 00:15:35;;;;;;;2.03;1.40;;;;;;;16.24;100.00;102001.69;4978747;28;20215;-65
2022/07/24 00:18:01;;;;;;;4.63;1.53;;;;;;;16.19;100.00;101983.34;4978250;28;20323;-65
2022/07/24 00:20:26;;;;;;;1.43;1.30;;;;;;;15.70;100.00;101943.97;4975848;28;20271;-65
2022/07/24 00:22:52;;;;;;;1.90;1.30;;;;;;;16.31;100.00;101983.56;4980429;28;20218;-65
2022/07/24 00:25:17;;;;;;;2.73;1.47;;;;;;;16.06;100.00;102012.31;4972828;28;20214;-65
2022/07/24 00:27:42;;;;;;;1.60;1.50;;;;;;;16.17;100.00;102007.09;4974037;28;20194;-66
2022/07/24 00:30:08;;;;;;;1.43;1.33;;;;;;;16.09;100.00;102007.31;4978963;28;20236;-65
2022/07/24 00:32:34;;;;;;;1.40;1.30;;;;;;;16.14;100.00;102010.22;4975970;28;20225;-65
2022/07/24 00:34:59;;;;;;;2.17;1.50;;;;;;;15.97;100.00;101980.03;4978459;28;20285;-66
2022/07/24 00:37:24;;;;;;;1.23;1.10;;;;;;;16.20;100.00;102013.94;4977392;28;20643;-65
2022/07/24 00:39:50;;;;;;;1.60;1.30;;;;;;;16.09;100.00;101965.88;4975465;28;20198;-65
2022/07/24 00:42:15;;;;;;;1.23;1.13;;;;;;;15.97;100.00;101992.72;4976706;28;20218;-65
2022/07/24 00:44:41;;;;;;;1.60;1.50;;;;;;;15.47;100.00;102011.06;4980158;28;20264;-65
2022/07/24 00:47:06;;;;;;;2.33;1.30;;;;;;;15.63;100.00;101975.56;4978094;28;20213;-65
2022/07/24 00:49:31;;;;;;;2.03;1.53;;;;;;;15.94;100.00;101966.91;4980121;28;20190;-65
2022/07/24 00:51:57;;;;;;;1.87;1.43;;;;;;;16.04;100.00;102002.50;4978677;28;25098;-65
2022/07/24 00:54:23;;;;;;;1.13;1.03;;;;;;;15.75;100.00;101989.34;4977220;28;25061;-65
2022/07/24 00:56:51;;;;;;;2.43;1.60;;;;;;;15.88;100.00;101994.81;4975606;28;25067;-65
2022/07/24 00:59:18;;;;;;;2.93;1.50;;;;;;;15.29;100.00;101931.38;4978102;28;25091;-65
2022/07/24 01:01:44;;;;;;;1.83;1.60;;;;;;;14.89;100.00;101933.09;4972916;28;25100;-65
2022/07/24 01:04:10;;;;;;;1.60;1.50;;;;;;;15.36;100.00;102001.66;4979707;28;20487;-65
2022/07/24 01:06:35;;;;;;;1.73;1.63;;;;;;;15.13;100.00;102012.81;4974776;28;25068;-65
2022/07/24 01:09:01;;;;;;;1.67;1.57;;;;;;;15.22;100.00;102008.09;4979421;28;25122;-65
2022/07/24 01:11:27;;;;;;;3.20;2.03;;;;;;;15.09;100.00;102006.13;4983238;28;20212;-65
2022/07/24 01:13:52;;;;;;;2.37;1.60;;;;;;;14.96;100.00;101965.56;4978193;28;20236;-65
2022/07/24 01:16:18;;;;;;;1.93;1.60;;;;;;;15.27;100.00;102001.00;4981219;28;25174;-65
2022/07/24 01:18:43;;;;;;;4.80;1.87;;;;;;;15.12;100.00;101994.94;4982167;28;25081;-65
2022/07/24 01:21:10;;;;;;;2.13;1.70;;;;;;;15.19;100.00;101935.50;4980435;28;20204;-65
2022/07/24 01:23:35;;;;;;;1.90;1.70;;;;;;;15.29;100.00;101969.22;4984000;28;25062;-65
2022/07/24 01:26:01;;;;;;;1.67;1.53;;;;;;;15.36;100.00;101994.41;4981759;28;25129;-65
2022/07/24 01:28:27;;;;;;;3.83;2.20;;;;;;;15.20;100.00;101988.53;4984924;28;25097;-66
2022/07/24 01:30:53;;;;;;;1.83;1.63;;;;;;;14.93;100.00;101937.06;4980576;28;25145;-65
2022/07/24 01:33:19;;;;;;;4.43;2.30;;;;;;;15.35;100.00;101972.97;4996328;28;20479;-65
2022/07/24 01:35:44;;;;;;;3.73;2.20;;;;;;;14.99;100.00;101957.88;4981336;28;25103;-65
2022/07/24 01:38:12;;;;;;;4.27;2.77;;;;;;;14.99;100.00;101982.19;4981627;28;25071;-65
2022/07/24 01:40:39;;;;;;;2.47;1.60;;;;;;;15.45;100.00;101976.16;4978626;28;20220;-65
2022/07/24 01:43:04;;;;;;;2.03;1.87;;;;;;;14.92;100.00;101981.31;4978268;28;20963;-65
2022/07/24 01:45:30;;;;;;;2.60;2.13;;;;;;;14.48;100.00;101932.00;4981968;28;20487;-66
2022/07/24 01:47:55;;;;;;;3.93;2.20;;;;;;;14.80;100.00;101928.91;4981472;28;25072;-65
2022/07/24 01:50:21;;;;;;;2.33;2.13;;;;;;;15.35;100.00;101972.97;4980493;28;25074;-65
2022/07/24 01:52:46;;;;;;;3.10;1.93;;;;;;;15.14;100.00;101982.88;4981333;28;25111;-65
2022/07/24 01:55:12;;;;;;;2.00;1.70;;;;;;;15.04;100.00;101974.34;4981515;28;20901;-65
2022/07/24 01:57:38;;;;;;;3.37;1.93;;;;;;;14.88;100.00;101975.47;4976698;28;20200;-65
2022/07/24 02:00:05;;;;;;;2.13;1.93;;;;;;;14.83;100.00;101991.44;4977072;28;20807;-65
2022/07/24 02:02:31;;;;;;;2.70;2.13;;;;;;;14.80;100.00;101964.84;4982315;28;25132;-66
2022/07/24 02:04:56;;;;;;;1.90;1.73;;;;;;;15.02;100.00;101981.78;4977151;28;25196;-66
2022/07/24 02:07:21;;;;;;;2.83;2.60;;;;;;;15.16;100.00;101977.28;4982532;28;25081;-65
2022/07/24 02:09:47;;;;;;;2.47;2.10;;;;;;;14.59;100.00;101821.84;4979409;28;20767;-65
2022/07/24 02:12:12;;;;;;;2.97;2.30;;;;;;;15.12;100.00;101974.13;4993812;28;20621;-65
2022/07/24 02:14:38;;;;;;;3.00;2.27;;;;;;;15.27;100.00;101965.03;4981224;28;25117;-65
2022/07/24 02:17:04;;;;;;;3.17;2.87;;;;;;;15.10;100.00;101959.16;4976784;28;25075;-65
2022/07/24 02:19:29;;;;;;;2.53;2.20;;;;;;;14.77;100.00;101945.50;4981108;28;20662;-66
2022/07/24 02:21:55;;;;;;;3.20;2.53;;;;;;;14.52;100.00;101932.47;4973260;28;20593;-66
2022/07/24 02:24:21;;;;;;;2.47;2.27;;;;;;;14.86;100.00;101980.25;4980694;28;25172;-65
2022/07/24 02:26:47;;;;;;;2.33;2.13;;;;;;;15.30;100.00;101970.03;4981036;28;20454;-65
2022/07/24 02:29:13;;;;;;;4.40;2.73;;;;;;;15.13;100.00;101975.00;4979180;28;25116;-65
2022/07/24 02:31:38;;;;;;;4.33;2.93;;;;;;;14.98;100.00;101966.16;4980432;28;20209;-66
2022/07/24 02:34:03;;;;;;;3.77;3.17;;;;;;;14.41;100.00;101904.16;4976427;28;25053;-65
2022/07/24 02:36:29;;;;;;;3.50;3.10;;;;;;;14.72;100.00;101931.75;4977216;28;20570;-65
2022/07/24 02:38:54;;;;;;;3.33;3.03;;;;;;;14.99;100.00;101971.41;4979182;28;20209;-65
2022/07/24 02:41:19;;;;;;;3.33;3.03;;;;;;;14.81;100.00;101949.47;4978858;28;25132;-65
2022/07/24 02:43:45;;;;;;;3.50;3.00;;;;;;;15.17;100.00;101967.31;4977903;28;25087;-65
2022/07/24 02:46:10;;;;;;;3.50;3.13;;;;;;;14.80;100.00;101937.81;4980626;28;25064;-65
2022/07/24 02:48:36;;;;;;;5.83;3.67;;;;;;;14.72;100.00;101954.19;4979636;28;20200;-65
2022/07/24 02:51:02;;;;;;;3.47;3.17;;;;;;;15.02;100.00;101967.47;4980342;28;25073;-65
2022/07/24 02:53:28;;;;;;;7.73;2.80;;;;;;;14.97;100.00;101964.50;4979136;28;25096;-66
2022/07/24 02:55:53;;;;;;;4.30;3.90;;;;;;;14.76;100.00;101962.75;4980685;28;21081;-65
2022/07/24 02:58:19;;;;;;;3.17;2.97;;;;;;;14.84;100.00;101968.81;4980119;28;25084;-66
2022/07/24 03:00:44;;;;;;;4.00;3.60;;;;;;;14.73;100.00;101960.44;4978075;28;20204;-66
2022/07/24 03:03:10;;;;;;;3.93;2.90;;;;;;;14.55;100.00;101966.34;4980531;28;25154;-65
2022/07/24 03:05:35;;;;;;;3.30;2.97;;;;;;;14.77;100.00;101937.41;4980075;28;20228;-65
2022/07/24 03:08:01;;;;;;;3.60;3.30;;;;;;;14.86;100.00;101957.81;4978286;28;20694;-65
2022/07/24 03:10:26;;;;;;;4.60;3.60;;;;;;;14.19;100.00;101919.56;4976467;28;20204;-66
2022/07/24 03:12:52;;;;;;;3.40;3.10;;;;;;;14.71;100.00;101949.84;4978348;28;25065;-65
2022/07/24 03:15:17;;;;;;;3.70;3.40;;;;;;;14.83;100.00;101953.63;4978517;28;20212;-65
2022/07/24 03:17:54;;;;;;;3.50;3.20;;;;;;;14.72;100.00;101956.88;4975570;28;21655;-66
2022/07/24 03:20:24;;;;;;;4.33;3.57;;;;;;;14.73;100.00;101953.19;4978036;28;25068;-66
2022/07/24 03:22:50;;;;;;;4.60;4.20;;;;;;;14.81;100.00;101952.16;4977013;28;20914;-66
2022/07/24 03:25:16;;;;;;;4.23;3.40;;;;;;;14.93;100.00;101928.97;4979596;28;25195;-66
2022/07/24 03:27:42;;;;;;;3.90;3.50;;;;;;;14.91;100.00;101925.63;4979470;28;20451;-66
2022/07/24 03:30:08;;;;;;;4.60;4.20;;;;;;;14.63;100.00;101948.13;4978623;28;20464;-66
2022/07/24 03:32:34;;;;;;;4.53;3.53;;;;;;;14.81;100.00;101933.25;4980800;28;20236;-66
2022/07/24 03:35:00;;;;;;;4.83;4.33;;;;;;;14.94;100.00;101943.31;4976182;28;20483;-66
2022/07/24 03:37:25;;;;;;;3.60;3.30;;;;;;;14.86;100.00;101915.41;4995155;28;20196;-66
2022/07/24 03:39:50;;;;;;;5.50;4.80;;;;;;;14.91;100.00;101947.25;4980273;28;25173;-65
2022/07/24 03:42:16;;;;;;;4.17;3.77;;;;;;;14.99;100.00;101936.28;4979606;28;25059;-66
2022/07/24 03:44:41;;;;;;;4.03;3.73;;;;;;;14.58;100.00;101929.00;4977672;28;20216;-66
2022/07/24 03:47:07;;;;;;;4.63;4.23;;;;;;;14.45;100.00;101888.38;4976644;28;25076;-66
2022/07/24 03:49:32;;;;;;;4.10;3.70;;;;;;;14.71;100.00;101919.28;4980360;28;20203;-67
2022/07/24 03:51:57;;;;;;;4.27;3.80;;;;;;;14.84;100.00;101927.44;4976932;28;20851;-66
2022/07/24 03:54:23;;;;;;;4.60;3.90;;;;;;;14.52;100.00;101908.16;4980407;28;25095;-66
2022/07/24 03:56:49;;;;;;;4.87;3.97;;;;;;;14.83;100.00;101931.19;4978226;28;25076;-66
2022/07/24 03:59:14;;;;;;;4.03;3.67;;;;;;;14.99;100.00;101925.47;4976856;28;20256;-66
2022/07/24 04:01:40;;;;;;;4.03;3.63;;;;;;;14.89;100.00;101933.09;4979533;28;20466;-66
2022/07/24 04:04:05;;;;;;;4.53;3.43;;;;;;;15.14;100.00;101903.69;4975824;28;20296;-66
2022/07/24 04:06:32;;;;;;;4.83;4.40;;;;;;;15.14;100.00;101917.19;4979174;28;20192;-66
2022/07/24 04:08:58;;;;;;;4.47;3.87;;;;;;;15.15;100.00;101919.69;4977387;28;25061;-66
2022/07/24 04:11:24;;;;;;;3.93;3.30;;;;;;;14.99;100.00;101909.25;4980854;28;25201;-66
2022/07/24 04:13:50;;;;;;;4.30;3.90;;;;;;;15.14;100.00;101926.13;4978815;28;25133;-66
2022/07/24 04:16:15;;;;;;;4.07;3.67;;;;;;;15.03;100.00;101851.06;4975071;28;20216;-67
2022/07/24 04:18:40;;;;;;;4.30;3.73;;;;;;;15.04;100.00;101911.31;4977585;28;20203;-66
2022/07/24 04:21:06;;;;;;;5.10;4.33;;;;;;;14.94;100.00;101916.28;4977418;28;20208;-66
2022/07/24 04:23:31;;;;;;;4.90;4.00;;;;;;;15.17;100.00;101908.69;4979194;28;25136;-66
2022/07/24 04:25:57;;;;;;;4.47;4.07;;;;;;;15.21;100.00;101901.00;4976530;28;20854;-66
2022/07/24 04:28:23;;;;;;;4.30;3.90;;;;;;;15.17;100.00;101902.44;4979324;28;20205;-66
2022/07/24 04:30:48;;;;;;;4.10;3.70;;;;;;;15.27;100.00;101894.78;4978483;28;25068;-66
2022/07/24 04:33:13;;;;;;;4.23;3.80;;;;;;;15.04;100.00;101895.13;4979116;28;25124;-67
2022/07/24 04:35:39;;;;;;;4.53;4.13;;;;;;;15.27;100.00;101903.72;4980938;28;20227;-66
2022/07/24 04:38:04;;;;;;;7.93;4.57;;;;;;;15.29;100.00;101901.66;4979083;28;25118;-66
2022/07/24 04:40:29;;;;;;;5.83;4.20;;;;;;;15.29;100.00;101882.72;4981120;28;20576;-66
2022/07/24 04:42:55;;;;;;;5.63;4.33;;;;;;;15.49;100.00;101898.97;4979079;28;20219;-66
2022/07/24 04:45:20;;;;;;;4.53;4.13;;;;;;;15.22;100.00;101910.78;4976557;28;25080;-66
2022/07/24 04:47:46;;;;;;;4.87;4.47;;;;;;;15.30;100.00;101900.63;4978776;28;20201;-66
2022/07/24 04:50:11;;;;;;;7.00;5.00;;;;;;;15.17;100.00;101905.97;4981285;28;25074;-66
2022/07/24 04:52:37;;;;;;;5.23;4.73;;;;;;;15.36;100.00;101880.03;4978912;28;25150;-66
2022/07/24 04:55:02;;;;;;;5.23;4.73;;;;;;;14.94;100.00;101814.47;4979842;28;25068;-66
2022/07/24 04:57:28;;;;;;;5.07;4.57;;;;;;;15.44;100.00;101908.75;4979951;28;25171;-66
2022/07/24 04:59:53;;;;;;;4.70;4.30;;;;;;;15.49;100.00;101874.66;4978921;28;20205;-67
2022/07/24 05:02:18;;;;;;;4.50;4.10;;;;;;;15.81;100.00;101905.50;4979365;28;20221;-66
2022/07/24 05:04:44;;;;;;;4.70;4.00;;;;;;;15.18;100.00;101858.16;4977222;28;25079;-66
2022/07/24 05:07:09;;;;;;;4.40;4.00;;;;;;;15.67;100.00;101901.09;4980113;28;25109;-66
2022/07/24 05:09:35;;;;;;;4.90;4.50;;;;;;;15.31;100.00;101856.34;5005612;23;20257;-89
2022/07/24 05:12:00;;;;;;;5.67;5.17;;;;;;;15.30;100.00;101861.94;5004812;28;25061;-92
2022/07/24 05:14:26;;;;;;;4.67;4.17;;;;;;;16.03;100.00;101906.13;5003801;28;20200;-88
2022/07/24 05:16:51;;;;;;;6.00;4.70;;;;;;;15.86;100.00;101898.66;5004120;28;25056;-89
2022/07/24 05:19:16;;;;;;;4.70;3.80;;;;;;;15.96;100.00;101899.03;5007805;28;20306;-88
2022/07/24 05:21:42;;;;;;;3.90;3.50;;;;;;;16.09;100.00;101887.41;5001181;28;20223;-88
2022/07/24 05:24:07;;;;;;;4.40;3.70;;;;;;;16.00;100.00;101906.56;5001612;28;25069;-88
2022/07/24 05:26:33;;;;;;;3.77;3.47;;;;;;;15.69;100.00;101831.44;4999977;28;25107;-88
2022/07/24 05:28:59;;;;;;;4.10;3.70;;;;;;;15.63;100.00;101764.63;4999236;28;25069;-87
2022/07/24 05:31:25;;;;;;;3.67;3.37;;;;;;;16.24;100.00;101891.53;5004277;28;20648;-89
2022/07/24 05:33:51;;;;;;;4.40;4.00;;;;;;;15.67;100.00;101819.13;5013043;28;25093;-86
2022/07/24 05:36:16;;;;;;;4.20;3.67;;;;;;;16.40;100.00;101882.13;5002979;28;25088;-87
2022/07/24 05:38:43;;;;;;;3.70;3.30;;;;;;;16.49;100.00;101861.91;5002522;28;25058;-86
2022/07/24 05:41:09;;;;;;;3.50;3.20;;;;;;;16.33;100.00;101831.75;5001548;28;25148;-86
2022/07/24 05:43:35;;;;;;;4.77;4.33;;;;;;;16.14;100.00;101777.47;5000460;28;25170;-87
2022/07/24 05:46:00;;;;;;;3.83;3.47;;;;;;;16.24;100.00;101777.84;4997157;28;25108;-88
2022/07/24 05:48:25;;;;;;;6.03;3.70;;;;;;;16.82;100.00;101863.69;4995963;28;25067;-88
2022/07/24 05:50:51;;;;;;;11.77;4.60;;;;;;;16.42;100.00;101787.97;5003047;28;25095;-88
2022/07/24 05:53:16;;;;;;;5.00;4.43;;;;;;;16.86;100.00;101831.56;5000580;28;20572;-88
2022/07/24 05:55:42;;;;;;;4.00;3.60;;;;;;;17.13;100.00;101853.94;5001830;28;25129;-86
2022/07/24 05:58:07;;;;;;;3.50;3.20;;;;;;;16.54;100.00;101771.88;4996730;28;20229;-85
2022/07/24 06:00:32;;;;;;;4.60;4.23;;;;;;;16.73;100.00;101819.72;5003687;28;25089;-85
2022/07/24 06:02:58;;;;;;;5.40;4.13;;;;;;;16.72;100.00;101836.16;4999430;28;20192;-86
2022/07/24 06:05:23;;;;;;;3.73;3.40;;;;;;;15.57;100.00;101606.75;4996780;28;25171;-86
2022/07/24 06:07:49;;;;;;;3.90;3.43;;;;;;;16.14;100.00;101676.47;5003399;28;25061;-85
2022/07/24 06:10:14;;;;;;;3.37;3.10;;;;;;;16.70;100.00;101754.31;5012813;28;25064;-85
2022/07/24 06:12:39;;;;;;;3.70;3.40;;;;;;;16.75;100.00;101757.19;5003413;28;25059;-84
2022/07/24 06:15:06;;;;;;;3.73;3.33;;;;;;;17.15;100.00;101801.16;4999122;28;25106;-85
2022/07/24 06:17:31;;;;;;;4.33;3.93;;;;;;;17.20;100.00;101797.78;4999902;28;20203;-86
2022/07/24 06:19:56;;;;;;;4.40;3.67;;;;;;;17.60;100.00;101798.28;4998807;28;25089;-86
2022/07/24 06:22:22;;;;;;;3.50;2.90;;;;;;;17.50;100.00;101732.03;5011955;28;25131;-85
2022/07/24 06:24:47;;;;;;;4.40;3.23;;;;;;;17.06;100.00;101657.97;4999279;28;25119;-85
2022/07/24 06:27:13;;;;;;;5.17;4.00;;;;;;;17.75;100.00;101730.13;5001046;28;25064;-87
2022/07/24 06:29:38;;;;;;;9.17;3.73;;;;;;;17.50;100.00;101685.91;5000890;28;25069;-86
2022/07/24 06:32:04;;;;;;;4.40;3.20;;;;;;;17.89;100.00;101716.44;5007915;28;25084;-88
2022/07/24 06:34:29;;;;;;;7.27;3.80;;;;;;;18.05;100.00;101713.09;5001095;28;25070;-87
2022/07/24 06:36:55;;;;;;;5.60;3.00;;;;;;;17.79;100.00;101678.97;5002151;28;25159;-85
2022/07/24 06:39:20;;;;;;;3.47;3.17;;;;;;;18.62;100.00;101786.97;5001367;28;25074;-86
2022/07/24 06:41:46;;;;;;;3.40;3.10;;;;;;;18.61;100.00;101771.75;5003680;28;25057;-87
2022/07/24 06:44:11;;;;;;;3.80;3.40;;;;;;;18.38;100.00;101739.84;4999354;28;25082;-85
2022/07/24 06:46:36;;;;;;;4.40;3.63;;;;;;;18.34;100.00;101724.22;4997308;28;25076;-85
2022/07/24 06:49:02;;;;;;;4.23;3.83;;;;;;;18.09;100.00;101662.75;5000822;28;25053;-86
2022/07/24 06:51:27;;;;;;;7.73;4.00;;;;;;;18.69;100.00;101759.72;5002535;28;25103;-85
2022/07/24 06:53:53;;;;;;;4.30;3.90;;;;;;;18.74;100.00;101749.00;4999611;28;25083;-87
2022/07/24 06:56:18;;;;;;;7.37;3.50;;;;;;;18.66;100.00;101727.56;5000726;28;25071;-86
2022/07/24 06:58:44;;;;;;;5.50;4.13;;;;;;;18.67;100.00;101727.34;5000521;28;25061;-87
2022/07/24 07:01:09;;;;;;;5.20;4.40;;;;;;;19.13;100.00;101788.38;5000440;28;25057;-92
2022/07/24 07:03:34;;;;;;;6.90;4.97;;;;;;;19.11;100.00;101763.28;4998808;28;25057;-86
2022/07/24 07:06:00;;;;;;;8.00;5.37;;;;;;;18.67;100.00;101721.06;5010694;28;25067;-88
2022/07/24 07:08:26;;;;;;;5.30;4.50;;;;;;;18.74;100.00;101710.97;5003588;28;25075;-89
2022/07/24 07:10:51;;;;;;;5.67;5.17;;;;;;;18.76;100.00;101732.47;5004328;28;25049;-84
2022/07/24 07:13:16;;;;;;;8.73;5.20;;;;;;;18.89;100.00;101746.72;5001516;28;25108;-85
2022/07/24 07:15:42;;;;;;;10.57;5.63;;;;;;;19.15;100.00;101766.38;4999621;28;25081;-86
2022/07/24 07:18:07;;;;;;;8.23;5.37;;;;;;;18.99;100.00;101735.25;5000146;28;25103;-86
2022/07/24 07:20:33;;;;;;;9.70;7.90;;;;;;;19.48;100.00;101793.03;4996954;28;25061;-85
2022/07/24 07:22:58;;;;;;;8.10;5.97;;;;;;;18.51;100.00;101628.31;5001857;28;25068;-84
2022/07/24 07:25:24;;;;;;;9.50;6.73;;;;;;;18.93;100.00;101692.69;4993661;28;25063;-85
2022/07/24 07:27:49;;;;;;;7.00;6.30;;;;;;;19.26;100.00;101756.59;4995648;28;24987;-86
2022/07/24 07:30:15;;;;;;;9.87;6.90;;;;;;;19.16;100.00;101719.09;4990989;28;25084;-83
2022/07/24 07:32:40;;;;;;;8.00;6.67;;;;;;;18.81;100.00;101638.31;4995392;28;25134;-83
2022/07/24 07:35:06;;;;;;;10.37;7.13;;;;;;;19.55;100.00;101733.88;4991573;28;25141;-84
2022/07/24 07:37:32;;;;;;;7.83;7.03;;;;;;;19.92;100.00;101787.28;4993759;28;25096;-84
2022/07/24 07:39:58;;;;;;;8.43;5.80;;;;;;;18.84;100.00;101615.28;5005567;28;25112;-83
2022/07/24 07:42:23;;;;;;;9.00;7.50;;;;;;;19.99;100.00;101786.09;4987907;28;25062;-82
2022/07/24 07:44:48;;;;;;;10.70;7.17;;;;;;;19.45;100.00;101660.22;5000829;28;25112;-83
2022/07/24 07:47:14;;;;;;;10.80;7.80;;;;;;;19.61;100.00;101696.72;4997699;28;25176;-81
2022/07/24 07:49:39;;;;;;;8.23;7.00;;;;;;;19.49;100.00;101664.09;4997612;28;25110;-83
2022/07/24 07:52:05;;;;;;;11.10;8.70;;;;;;;19.76;100.00;101731.66;4994075;28;25075;-81
2022/07/24 07:54:30;;;;;;;10.13;8.23;;;;;;;20.05;100.00;101757.09;4994743;28;25074;-83
2022/07/24 07:56:56;;;;;;;9.93;8.10;;;;;;;20.21;100.00;101769.94;4995081;28;25072;-73
2022/07/24 07:59:21;;;;;;;9.30;7.87;;;;;;;19.69;100.00;101658.31;4996346;28;25075;-83
2022/07/24 08:01:47;;;;;;;9.77;8.70;;;;;;;19.60;100.00;101671.41;4997392;28;25059;-81
2022/07/24 08:04:12;;;;;;;8.60;7.60;;;;;;;20.41;100.00;101795.97;4996535;28;25133;-75
2022/07/24 08:06:38;;;;;;;8.50;7.60;;;;;;;20.42;100.00;101765.72;4997165;28;25077;-84
2022/07/24 08:09:03;;;;;;;13.10;8.60;;;;;;;19.76;100.00;101678.06;4993463;28;25062;-80
2022/07/24 08:11:29;;;;;;;8.37;7.57;;;;;;;20.46;100.00;101742.41;4994427;28;25069;-75
2022/07/24 08:13:55;;;;;;;10.17;9.00;;;;;;;19.36;100.00;101539.22;5001534;28;25086;-78
2022/07/24 08:16:20;;;;;;;9.70;8.07;;;;;;;20.09;100.00;101658.31;5000153;28;25122;-77
2022/07/24 08:18:46;;;;;;;10.60;9.40;;;;;;;19.41;100.00;101564.66;4996490;28;25091;-81
2022/07/24 08:21:18;;;;;;;10.03;8.87;;;;;;;20.96;100.00;101768.16;4994961;28;25055;-79
2022/07/24 08:23:45;;;;;;;9.27;8.30;;;;;;;19.94;100.00;101589.13;4994927;28;25105;-78
2022/07/24 08:26:11;;;;;;;8.93;8.03;;;;;;;19.78;100.00;101582.53;4995922;28;25111;-83
2022/07/24 08:28:37;;;;;;;10.00;9.00;;;;;;;21.09;100.00;101728.81;5000786;28;25092;-85
2022/07/24 08:31:02;;;;;;;11.27;9.67;;;;;;;21.45;100.00;101763.00;5001410;28;25087;-78
2022/07/24 08:33:28;;;;;;;11.53;9.20;;;;;;;21.06;100.00;101738.34;4998213;28;25089;-90
2022/07/24 08:35:53;;;;;;;14.40;11.80;;;;;;;20.90;100.00;101706.41;5000085;28;25133;-79
2022/07/24 08:38:18;;;;;;;10.67;9.57;;;;;;;21.42;100.00;101766.22;4997250;28;25060;-77
2022/07/24 08:40:45;;;;;;;17.13;10.37;;;;;;;21.71;100.00;101761.47;4983502;28;25128;-77
2022/07/24 08:43:11;;;;;;;14.23;9.70;;;;;;;22.02;100.00;101761.91;4998200;28;20200;-78
2022/07/24 08:45:38;;;;;;;11.67;10.57;;;;;;;20.33;100.00;101502.91;4992388;28;25092;-78
2022/07/24 08:48:06;;;;;;;10.80;9.17;;;;;;;22.07;100.00;101760.06;4988389;28;25064;-79
2022/07/24 08:50:33;;;;;;;13.27;10.73;;;;;;;20.54;100.00;101564.91;4990159;28;25097;-78
2022/07/24 08:53:00;;;;;;;11.30;9.30;;;;;;;21.44;100.00;101693.94;4990671;28;25112;-76
2022/07/24 08:55:26;;;;;;;10.87;9.23;;;;;;;21.05;100.00;101632.19;5002150;28;25192;-79
2022/07/24 08:57:53;;;;;;;13.07;9.83;;;;;;;21.35;100.00;101678.19;4991895;28;25145;-79
2022/07/24 09:00:19;;;;;;;11.00;9.10;;;;;;;20.90;100.00;101630.88;4988142;28;25098;-81
2022/07/24 09:02:46;;;;;;;9.20;7.97;;;;;;;21.41;100.00;101675.34;4995107;28;25160;-85
2022/07/24 09:05:12;;;;;;;11.60;9.20;;;;;;;21.60;100.00;101716.00;4998286;28;26062;-91
2022/07/24 09:07:37;;;;;;;9.60;8.60;;;;;;;21.74;100.00;101738.31;4998071;28;25165;-80
2022/07/24 09:10:06;;;;;;;7.60;6.80;;;;;;;20.15;100.00;101448.72;4993692;28;25058;-81
2022/07/24 09:12:41;;;;;;;8.77;6.93;;;;;;;22.16;100.00;101740.47;4996819;28;25060;-79
2022/07/24 09:15:23;;;;;;;7.63;6.90;;;;;;;21.70;100.00;101656.06;4995372;28;25129;-83
2022/07/24 09:17:51;;;;;;;6.93;6.23;;;;;;;21.98;100.00;101690.53;4994938;28;21002;-77
2022/07/24 09:20:17;;;;;;;5.53;5.03;;;;;;;22.09;100.00;101656.81;4995865;28;20482;-80
2022/07/24 09:22:43;;;;;;;5.60;4.73;;;;;;;22.78;100.00;101737.38;4994460;28;25186;-85
2022/07/24 09:25:17;;;;;;;5.40;4.40;;;;;;;22.71;100.00;101726.66;4992801;28;25121;-82
2022/07/24 09:27:49;;;;;;;6.10;5.47;;;;;;;22.76;100.00;101723.13;5006382;28;25204;-84
2022/07/24 09:30:23;;;;;;;8.40;6.50;;;;;;;22.33;100.00;101687.47;5001921;28;25172;-82
2022/07/24 09:33:12;;;;;;;8.43;6.30;;;;;;;22.81;100.00;101736.03;4998648;28;20453;-82
2022/07/24 09:35:43;;;;;;;13.87;10.00;;;;;;;22.61;100.00;101726.53;5000307;28;25556;-84
2022/07/24 09:38:11;;;;;;;8.93;7.53;;;;;;;22.77;100.00;101735.75;5000791;28;25121;-84
2022/07/24 09:40:39;;;;;;;5.43;4.93;;;;;;;22.69;100.00;101737.03;4999337;28;25107;-87
2022/07/24 09:43:15;;;;;;;5.60;3.40;;;;;;;22.84;100.00;101732.78;4996774;28;25182;-83
2022/07/24 09:45:59;;;;;;;3.33;3.00;;;;;;;22.96;100.00;101733.47;4995408;28;25104;-81
2022/07/24 09:48:30;;;;;;;5.60;2.67;;;;;;;23.19;100.00;101727.63;4993142;28;25125;-76
2022/07/24 09:50:58;;;;;;;3.97;2.60;;;;;;;23.27;100.00;101733.72;4994902;28;25105;-73
2022/07/24 09:53:27;;;;;;;3.20;2.53;;;;;;;22.36;100.00;101606.00;4997622;28;25181;-74
2022/07/24 09:56:10;;;;;;;2.77;2.57;;;;;;;23.05;100.00;101636.13;5000524;28;25114;-74
2022/07/24 09:58:38;;;;;;;3.30;2.53;;;;;;;23.15;100.00;101715.56;5002833;28;20502;-75
2022/07/24 10:01:07;;;;;;;3.97;2.40;;;;;;;22.44;100.00;101600.06;5004962;28;25110;-76
2022/07/24 10:03:35;;;;;;;3.00;2.57;;;;;;;22.85;100.00;101595.75;5000588;28;25160;-76
2022/07/24 10:06:03;;;;;;;3.20;2.23;;;;;;;23.53;100.00;101712.81;5002183;28;25163;-76
2022/07/24 10:08:30;;;;;;;2.83;2.63;;;;;;;23.27;100.00;101657.91;5000874;28;25111;-76
2022/07/24 10:10:57;;;;;;;3.23;2.80;;;;;;;22.61;100.00;101589.84;5002889;28;25149;-75
2022/07/24 10:13:27;;;;;;;2.50;2.30;;;;;;;23.31;100.00;101721.16;5003910;28;25113;-76
2022/07/24 10:16:22;;;;;;;4.07;2.30;;;;;;;24.09;100.00;101696.69;5002985;28;25100;-76
2022/07/24 10:19:03;;;;;;;2.80;2.17;;;;;;;23.88;100.00;101652.75;5002546;28;25106;-76
2022/07/24 10:21:33;;;;;;;2.40;2.17;;;;;;;23.50;100.00;101601.91;5004223;28;25101;-76
2022/07/24 10:24:07;;;;;;;3.00;2.10;;;;;;;23.94;100.00;101686.50;5002881;28;25093;-75
2022/07/24 10:26:44;;;;;;;3.97;2.20;;;;;;;23.87;100.00;101628.41;5000245;28;25122;-74
2022/07/24 10:29:22;;;;;;;2.90;1.93;;;;;;;24.06;100.00;101698.03;5002118;28;25114;-74
2022/07/24 10:31:50;;;;;;;2.93;2.60;;;;;;;24.17;100.00;101689.88;4999944;28;25172;-74
2022/07/24 10:34:26;;;;;;;2.40;2.17;;;;;;;23.87;100.00;101696.88;4998268;28;25098;-74
2022/07/24 10:36:56;;;;;;;2.87;2.63;;;;;;;23.99;100.00;101661.03;5001416;28;25103;-74
2022/07/24 10:39:31;;;;;;;2.87;2.33;;;;;;;24.63;100.00;101696.28;5003101;28;25179;-75
2022/07/24 10:42:05;;;;;;;2.83;2.50;;;;;;;24.50;100.00;101675.72;5001813;28;25096;-76
2022/07/24 10:44:32;;;;;;;4.73;2.37;;;;;;;24.58;100.00;101694.34;5002658;28;25090;-76
2022/07/24 10:47:07;;;;;;;2.80;2.57;;;;;;;24.67;100.00;101686.41;5002985;28;25139;-77
2022/07/24 10:49:33;;;;;;;2.77;2.50;;;;;;;24.56;100.00;101688.34;4997523;28;29014;-76
2022/07/24 10:51:59;;;;;;;2.33;2.13;;;;;;;24.39;100.00;101594.50;5000560;28;25191;-76
2022/07/24 10:54:25;;;;;;;2.47;2.20;;;;;;;24.90;100.00;101682.31;5002694;28;25108;-76
2022/07/24 10:56:50;;;;;;;3.90;2.40;;;;;;;24.31;100.00;101652.63;5001682;28;25233;-77
2022/07/24 10:59:32;;;;;;;3.10;1.90;;;;;;;24.46;100.00;101677.34;5002023;28;25110;-76
2022/07/24 11:02:28;;;;;;;3.47;1.63;;;;;;;23.60;100.00;101484.19;4997387;28;25066;-75
2022/07/24 11:05:33;;;;;;;2.80;2.10;;;;;;;24.60;100.00;101685.88;4995579;28;25145;-76
2022/07/24 11:08:17;;;;;;;4.30;2.70;;;;;;;24.74;100.00;101683.41;5000264;28;25124;-76
2022/07/24 11:10:54;;;;;;;4.90;2.50;;;;;;;24.30;100.00;101665.50;4999112;28;25108;-76
2022/07/24 11:13:31;;;;;;;3.93;2.40;;;;;;;24.39;100.00;101678.66;4999222;28;25108;-76
2022/07/24 11:16:15;;;;;;;2.80;2.60;;;;;;;24.67;100.00;101685.59;4994438;28;25171;-77